Terminal Aerodrome Forecast
Issued by NWS Jackson, KY

Home | Current Version | Previous Version | Text Only | Print | Product List | Glossary Off
Versions: 1 2 3 4 5 6 7 8 9 10 11 12 13 14 15

196
FTUS43 KJKL 181733
TAFLOZ
TAF
KLOZ 181733Z 1818/1918 23008KT P6SM OVC010
     FM182300 VRB05KT P6SM BKN008
     FM190700 VRB03KT P6SM BKN004
     FM191300 VRB05KT P6SM SCT008 BKN035=

USA.gov is the U.S. government's official web portal to all federal, state and local government web resources and services.